Time;durP1;ratioP1;P1;durP2;ratioP2;P2;SDS_P1;SDS_P2;PMS_P1;PMS_P2;Temp;Humidity;BMP_temperature;BMP_pressure;BME280_temperature;BME280_humidity;BME280_pressure;Samples;Min_cycle;Max_cycle;Signal;HPM_P1;HPM_P2
2023/07/02 00:02:26;;;;;;;5.78;5.28;;;18.70;99.90;;;;;;5061242;28;20177;-89
2023/07/02 00:04:51;;;;;;;6.22;5.75;;;18.60;99.90;;;;;;5061473;28;20565;-91
2023/07/02 00:07:17;;;;;;;6.47;5.80;;;18.70;99.90;;;;;;5059672;28;20203;-90
2023/07/02 00:09:43;;;;;;;5.90;5.50;;;18.60;99.90;;;;;;5062027;28;20180;-90
2023/07/02 00:12:09;;;;;;;6.40;5.95;;;18.60;99.90;;;;;;5051452;28;20761;-91
2023/07/02 00:14:35;;;;;;;6.25;5.75;;;18.50;99.90;;;;;;5040338;28;20185;-89
2023/07/02 00:17:04;;;;;;;6.93;6.32;;;18.50;99.90;;;;;;5041477;28;20211;-91
2023/07/02 00:22:15;;;;;;;6.13;5.63;;;18.50;99.90;;;;;;5040475;28;20200;-90
2023/07/02 00:24:41;;;;;;;6.50;5.85;;;18.50;99.90;;;;;;5041120;28;20176;-87
2023/07/02 00:27:07;;;;;;;6.30;5.90;;;18.40;99.90;;;;;;5041518;28;20642;-90
2023/07/02 00:29:32;;;;;;;6.90;6.30;;;18.40;99.90;;;;;;5033256;28;20186;-90
2023/07/02 00:31:58;;;;;;;6.80;6.30;;;18.40;99.90;;;;;;5019371;28;20166;-87
2023/07/02 00:34:23;;;;;;;6.03;5.63;;;18.40;99.90;;;;;;5035226;28;20193;-90
2023/07/02 00:36:49;;;;;;;6.65;6.15;;;18.50;99.90;;;;;;5038331;28;20200;-89
2023/07/02 00:39:16;;;;;;;6.55;6.05;;;18.40;99.90;;;;;;5039009;28;20184;-89
2023/07/02 00:41:42;;;;;;;6.75;6.15;;;18.50;99.90;;;;;;5038427;28;20184;-91
2023/07/02 00:44:10;;;;;;;6.75;6.10;;;18.40;99.90;;;;;;5046336;28;20183;-86
2023/07/02 00:46:36;;;;;;;5.82;5.43;;;18.30;99.90;;;;;;5046331;28;20176;-89
2023/07/02 00:49:04;;;;;;;6.45;5.95;;;18.40;99.90;;;;;;5037670;28;20197;-89
2023/07/02 00:51:30;;;;;;;6.60;5.88;;;18.50;99.90;;;;;;5037660;28;20242;-89
2023/07/02 00:53:58;;;;;;;5.85;5.45;;;18.50;99.90;;;;;;5038158;28;20484;-90
2023/07/02 00:56:25;;;;;;;5.93;5.43;;;18.70;99.90;;;;;;5039241;28;20219;-87
2023/07/02 00:58:53;;;;;;;6.45;6.05;;;18.70;99.90;;;;;;5040959;28;20185;-90
2023/07/02 01:01:21;;;;;;;7.05;6.43;;;18.70;99.90;;;;;;5041847;28;20177;-90
2023/07/02 01:03:59;;;;;;;6.28;5.72;;;18.70;99.90;;;;;;5040316;28;20181;-90
2023/07/02 01:06:27;;;;;;;6.15;5.75;;;18.80;99.90;;;;;;5019540;28;20185;-89
2023/07/02 01:08:57;;;;;;;5.40;5.10;;;18.80;99.90;;;;;;5033698;28;20267;-90
2023/07/02 01:11:35;;;;;;;5.82;5.43;;;18.90;99.90;;;;;;5039214;28;20176;-91
2023/07/02 01:14:32;;;;;;;6.32;5.82;;;19.00;99.90;;;;;;5039526;28;20248;-89
2023/07/02 01:16:59;;;;;;;6.60;6.10;;;19.00;99.90;;;;;;5039341;28;20213;-89
2023/07/02 01:19:43;;;;;;;10.30;5.78;;;19.00;99.90;;;;;;5039701;28;20174;-89
2023/07/02 01:22:10;;;;;;;7.60;5.85;;;18.90;99.90;;;;;;5038578;28;20177;-89
2023/07/02 01:24:36;;;;;;;9.90;6.45;;;18.90;99.90;;;;;;5037586;28;20220;-89
2023/07/02 01:27:02;;;;;;;6.35;5.78;;;18.90;99.90;;;;;;5038974;28;20197;-90
2023/07/02 01:29:31;;;;;;;7.05;6.38;;;18.80;99.90;;;;;;5037401;28;20173;-90
2023/07/02 01:31:57;;;;;;;6.55;6.00;;;18.70;99.90;;;;;;5036913;28;20173;-89
2023/07/02 01:34:23;;;;;;;6.45;5.93;;;18.70;99.90;;;;;;5036931;28;20181;-90
2023/07/02 01:36:49;;;;;;;7.40;6.13;;;18.70;99.90;;;;;;5042392;28;20220;-88
2023/07/02 01:39:15;;;;;;;6.57;5.72;;;18.70;99.90;;;;;;5033664;28;20197;-89
2023/07/02 01:41:52;;;;;;;5.93;5.50;;;18.60;99.90;;;;;;5048250;28;20283;-88
2023/07/02 01:44:19;;;;;;;6.05;5.47;;;18.60;99.20;;;;;;5056603;28;20187;-90
2023/07/02 01:46:48;;;;;;;7.88;5.22;;;18.60;98.90;;;;;;5058273;28;20260;-90
2023/07/02 01:49:20;;;;;;;7.85;5.18;;;18.60;97.20;;;;;;5033740;28;20220;-90
2023/07/02 01:51:53;;;;;;;7.38;4.68;;;18.60;95.70;;;;;;5018916;28;20182;-90
2023/07/02 01:54:20;;;;;;;5.47;4.97;;;18.60;95.90;;;;;;5018770;28;20178;-90
2023/07/02 01:56:46;;;;;;;8.10;5.35;;;18.60;94.50;;;;;;5018904;28;20683;-90
2023/07/02 01:59:12;;;;;;;6.10;5.50;;;18.60;93.20;;;;;;5018858;28;20179;-91
2023/07/02 02:01:41;;;;;;;8.05;5.07;;;18.60;92.00;;;;;;5018512;28;20180;-90
2023/07/02 02:04:10;;;;;;;5.80;5.00;;;18.60;90.10;;;;;;5018414;28;20178;-90
2023/07/02 02:06:37;;;;;;;5.97;4.85;;;18.60;90.70;;;;;;5019728;28;20201;-90
2023/07/02 02:09:04;;;;;;;6.50;5.22;;;18.50;90.10;;;;;;5018733;28;20200;-91
2023/07/02 02:11:30;;;;;;;6.80;5.45;;;18.40;89.80;;;;;;5019152;28;20185;-91
2023/07/02 02:13:57;;;;;;;6.25;5.00;;;18.40;87.40;;;;;;5019003;28;20189;-90
2023/07/02 02:16:22;;;;;;;8.70;5.43;;;18.40;89.00;;;;;;5019038;28;20338;-91
2023/07/02 02:18:51;;;;;;;5.55;5.05;;;18.30;90.10;;;;;;5018127;28;20229;-91
2023/07/02 02:21:17;;;;;;;6.70;4.95;;;18.20;89.70;;;;;;5018849;28;20177;-90
2023/07/02 02:23:43;;;;;;;6.57;5.25;;;18.20;87.90;;;;;;5018950;28;20179;-90
2023/07/02 02:26:09;;;;;;;5.95;5.35;;;18.20;89.30;;;;;;5016980;28;20658;-90
2023/07/02 02:28:35;;;;;;;6.20;4.97;;;18.10;88.60;;;;;;5036345;28;20724;-89
2023/07/02 02:31:00;;;;;;;6.18;5.05;;;18.00;88.30;;;;;;5040569;28;20336;-89
2023/07/02 02:33:26;;;;;;;6.88;5.13;;;18.00;88.60;;;;;;5047142;28;20193;-89
2023/07/02 02:35:52;;;;;;;6.93;5.47;;;18.00;89.40;;;;;;5054351;28;20215;-91
2023/07/02 02:38:17;;;;;;;7.55;4.90;;;18.00;88.50;;;;;;5052721;28;20216;-91
2023/07/02 02:40:43;;;;;;;6.07;5.18;;;18.10;89.00;;;;;;5049826;28;20737;-91
2023/07/02 02:43:09;;;;;;;5.97;5.35;;;18.00;87.80;;;;;;5039465;28;20260;-89
2023/07/02 02:45:35;;;;;;;6.38;5.10;;;18.10;88.00;;;;;;5050322;28;20176;-90
2023/07/02 02:48:00;;;;;;;5.90;4.75;;;18.00;88.00;;;;;;5050677;28;20230;-91
2023/07/02 02:50:27;;;;;;;5.80;5.20;;;18.00;87.40;;;;;;5052523;28;20188;-90
2023/07/02 02:52:52;;;;;;;5.97;5.43;;;18.00;87.60;;;;;;5039670;28;20184;-91
2023/07/02 02:55:18;;;;;;;5.82;5.03;;;17.90;87.60;;;;;;5033005;28;20230;-91
2023/07/02 02:57:44;;;;;;;5.82;5.22;;;17.90;88.20;;;;;;5031329;28;20214;-91
2023/07/02 03:00:11;;;;;;;5.45;5.00;;;17.90;87.20;;;;;;5033354;28;20214;-90
2023/07/02 03:02:37;;;;;;;5.88;5.35;;;17.80;87.90;;;;;;5032845;28;20183;-90
2023/07/02 03:05:05;;;;;;;7.38;5.10;;;17.80;88.60;;;;;;5032284;28;20183;-90
2023/07/02 03:07:31;;;;;;;6.70;5.38;;;17.70;89.80;;;;;;5021898;28;20232;-90
2023/07/02 03:09:57;;;;;;;7.53;5.30;;;17.70;88.90;;;;;;5018978;28;20203;-90
2023/07/02 03:12:22;;;;;;;6.00;5.20;;;17.70;89.00;;;;;;5019708;28;20248;-91
2023/07/02 03:14:52;;;;;;;6.13;5.13;;;17.60;90.20;;;;;;5019210;28;20718;-91
2023/07/02 03:17:19;;;;;;;7.13;5.60;;;17.70;89.40;;;;;;5030302;28;20554;-91
2023/07/02 03:19:44;;;;;;;6.03;5.22;;;17.70;88.90;;;;;;5037888;28;20187;-90
2023/07/02 03:22:10;;;;;;;5.97;5.38;;;17.80;89.90;;;;;;5038095;28;20230;-89
2023/07/02 03:24:36;;;;;;;7.95;5.18;;;17.90;89.40;;;;;;5036745;28;20263;-89
2023/07/02 03:27:01;;;;;;;8.40;5.57;;;17.90;89.10;;;;;;5040091;28;20193;-91
2023/07/02 03:29:27;;;;;;;5.90;5.18;;;17.90;88.90;;;;;;5039622;28;20190;-90
2023/07/02 03:31:53;;;;;;;5.72;5.18;;;17.80;88.70;;;;;;5047229;28;20642;-90
2023/07/02 03:34:18;;;;;;;5.63;5.13;;;17.80;89.60;;;;;;5036352;28;20181;-91
2023/07/02 03:36:44;;;;;;;6.30;5.18;;;17.60;89.70;;;;;;5019047;28;20733;-90
2023/07/02 03:39:10;;;;;;;5.88;5.38;;;17.50;90.10;;;;;;5034747;28;20186;-90
2023/07/02 03:41:35;;;;;;;6.28;5.72;;;17.40;90.50;;;;;;5039214;28;20183;-90
2023/07/02 03:44:01;;;;;;;7.38;6.10;;;17.30;91.60;;;;;;5039075;28;20202;-89
2023/07/02 03:46:27;;;;;;;7.22;5.75;;;17.30;92.10;;;;;;5039113;28;20814;-89
2023/07/02 03:48:52;;;;;;;9.10;5.45;;;17.30;92.40;;;;;;5044688;28;20196;-92
2023/07/02 03:51:18;;;;;;;8.80;6.20;;;17.20;92.70;;;;;;5046555;28;20185;-91
2023/07/02 03:53:44;;;;;;;6.90;6.20;;;17.20;92.30;;;;;;5028806;28;20183;-90
2023/07/02 03:56:09;;;;;;;9.10;6.00;;;17.10;93.10;;;;;;5023585;28;20207;-88
2023/07/02 03:58:35;;;;;;;6.93;6.00;;;17.20;93.30;;;;;;5027240;28;20209;-89
2023/07/02 04:01:01;;;;;;;7.43;5.60;;;17.20;92.70;;;;;;5027790;28;20230;-90
2023/07/02 04:03:27;;;;;;;6.97;6.30;;;17.20;92.70;;;;;;5031462;28;20210;-90
2023/07/02 04:05:52;;;;;;;6.43;5.77;;;17.20;92.40;;;;;;5022585;28;20276;-89
2023/07/02 04:08:20;;;;;;;5.97;5.38;;;17.30;91.50;;;;;;5020312;28;20257;-89
2023/07/02 04:10:46;;;;;;;7.40;5.80;;;17.30;91.70;;;;;;5021702;28;20208;-90
2023/07/02 04:13:12;;;;;;;7.15;6.00;;;17.30;91.50;;;;;;5021200;28;20191;-89
2023/07/02 04:15:37;;;;;;;9.35;6.70;;;17.40;91.00;;;;;;5022742;28;20247;-89
2023/07/02 04:18:03;;;;;;;7.22;6.28;;;17.40;92.30;;;;;;5025224;28;20204;-87
2023/07/02 04:20:28;;;;;;;7.05;6.25;;;17.40;92.10;;;;;;5018506;28;20193;-91
2023/07/02 04:22:55;;;;;;;6.95;6.28;;;17.40;92.00;;;;;;5017910;28;20183;-89
2023/07/02 04:25:20;;;;;;;6.88;6.20;;;17.30;92.40;;;;;;5017866;28;20273;-90
2023/07/02 04:27:46;;;;;;;7.50;6.22;;;17.20;92.50;;;;;;5033259;28;20243;-90
2023/07/02 04:30:14;;;;;;;7.55;6.78;;;17.20;93.30;;;;;;5047251;28;20204;-89
2023/07/02 04:32:40;;;;;;;7.50;6.80;;;17.20;92.40;;;;;;5036161;28;20217;-90
2023/07/02 04:35:06;;;;;;;8.15;6.50;;;17.30;93.10;;;;;;5037201;28;20235;-89
2023/07/02 04:37:32;;;;;;;9.13;6.63;;;17.30;91.70;;;;;;5037016;28;20704;-89
2023/07/02 04:39:58;;;;;;;9.07;6.60;;;17.40;90.80;;;;;;5038538;28;20182;-90
2023/07/02 04:42:31;;;;;;;10.57;6.68;;;17.30;91.80;;;;;;5041273;28;20194;-90
2023/07/02 04:45:02;;;;;;;7.20;6.50;;;17.20;92.40;;;;;;5037457;28;20228;-90
2023/07/02 04:47:29;;;;;;;9.73;6.53;;;17.20;93.60;;;;;;5037342;28;20199;-90
2023/07/02 04:49:54;;;;;;;11.57;6.27;;;17.30;93.70;;;;;;5037451;28;20291;-90
2023/07/02 04:52:20;;;;;;;7.18;6.47;;;17.40;92.10;;;;;;5036367;28;20204;-92
2023/07/02 04:54:46;;;;;;;9.20;6.45;;;17.40;93.50;;;;;;5024885;28;20200;-89
2023/07/02 04:57:13;;;;;;;7.63;6.03;;;17.50;93.20;;;;;;5018847;28;20219;-89
2023/07/02 04:59:38;;;;;;;8.25;6.55;;;17.50;92.00;;;;;;5018497;28;20202;-90
2023/07/02 05:02:04;;;;;;;6.80;6.30;;;17.50;91.20;;;;;;5033544;28;20186;-89
2023/07/02 05:04:30;;;;;;;8.93;6.60;;;17.50;92.20;;;;;;5037681;28;20214;-90
2023/07/02 05:06:55;;;;;;;7.47;6.60;;;17.30;92.80;;;;;;5032157;28;20237;-90
2023/07/02 05:09:21;;;;;;;10.48;6.63;;;17.40;93.00;;;;;;5027562;28;20203;-89
2023/07/02 05:11:46;;;;;;;7.05;6.43;;;17.40;92.20;;;;;;5024630;28;20217;-89
2023/07/02 05:14:12;;;;;;;7.75;6.95;;;17.50;92.40;;;;;;5018130;28;20617;-89
2023/07/02 05:16:38;;;;;;;8.20;6.93;;;17.50;91.80;;;;;;5022253;28;20208;-89
2023/07/02 05:19:03;;;;;;;8.50;6.50;;;17.50;91.80;;;;;;5039235;28;20182;-87
2023/07/02 05:21:29;;;;;;;11.05;6.78;;;17.50;92.50;;;;;;5046223;28;20241;-89
2023/07/02 05:23:54;;;;;;;8.03;7.03;;;17.60;91.50;;;;;;5032376;28;20732;-91
2023/07/02 05:26:20;;;;;;;8.30;6.38;;;17.60;89.80;;;;;;5037965;28;20202;-88
2023/07/02 05:28:46;;;;;;;7.38;6.55;;;17.60;90.90;;;;;;5016540;28;20216;-90
2023/07/02 05:31:11;;;;;;;10.18;5.95;;;17.60;90.40;;;;;;5014479;28;20192;-88
2023/07/02 05:33:41;;;;;;;7.38;6.63;;;17.70;90.30;;;;;;5014810;28;20196;-91
2023/07/02 05:36:06;;;;;;;7.80;6.97;;;17.80;89.50;;;;;;5019190;28;20201;-88
2023/07/02 05:38:35;;;;;;;8.45;7.20;;;17.90;89.70;;;;;;5028894;28;20339;-90
2023/07/02 05:41:03;;;;;;;8.85;6.47;;;18.00;90.00;;;;;;5026965;28;20197;-89
2023/07/02 05:43:28;;;;;;;7.70;6.72;;;18.00;88.20;;;;;;5025123;28;20170;-89
2023/07/02 05:45:54;;;;;;;7.55;6.82;;;17.90;89.80;;;;;;5016686;28;20195;-90
2023/07/02 05:48:20;;;;;;;8.48;7.07;;;17.90;88.10;;;;;;5029189;28;20634;-90
2023/07/02 05:50:45;;;;;;;8.13;7.25;;;18.00;89.60;;;;;;5036219;28;20193;-90
2023/07/02 05:53:11;;;;;;;8.05;6.90;;;17.90;89.30;;;;;;5035370;28;20618;-88
2023/07/02 05:55:37;;;;;;;8.35;7.18;;;17.90;87.60;;;;;;5036203;28;20214;-89
2023/07/02 05:58:03;;;;;;;7.13;6.30;;;17.90;89.50;;;;;;5034923;28;20200;-89
2023/07/02 06:00:29;;;;;;;7.95;6.72;;;17.90;89.50;;;;;;5031529;28;20173;-91
2023/07/02 06:02:55;;;;;;;7.30;6.57;;;18.00;88.10;;;;;;5020137;28;20211;-90
2023/07/02 06:05:21;;;;;;;9.13;6.80;;;17.90;89.20;;;;;;5025356;28;20288;-89
2023/07/02 06:07:46;;;;;;;7.45;6.70;;;18.00;89.20;;;;;;5022852;28;20204;-89
2023/07/02 06:10:12;;;;;;;7.50;6.38;;;18.10;87.20;;;;;;5022750;28;20208;-89
2023/07/02 06:12:38;;;;;;;8.15;6.72;;;18.30;86.00;;;;;;5036645;28;20195;-87
2023/07/02 06:15:04;;;;;;;7.65;6.75;;;18.30;87.40;;;;;;5033561;28;20279;-87
2023/07/02 06:17:30;;;;;;;8.32;7.65;;;18.20;86.00;;;;;;5020730;28;20230;-86
2023/07/02 06:19:57;;;;;;;9.02;8.13;;;18.20;85.20;;;;;;5024247;28;20678;-85
2023/07/02 06:22:23;;;;;;;9.52;8.52;;;18.20;84.50;;;;;;5045563;28;20199;-89
2023/07/02 06:24:49;;;;;;;10.38;8.52;;;18.30;83.60;;;;;;5030859;28;20175;-88
2023/07/02 06:27:14;;;;;;;11.40;9.02;;;18.30;85.20;;;;;;5030342;28;20210;-88
2023/07/02 06:29:40;;;;;;;12.82;9.32;;;18.30;83.80;;;;;;5031058;28;20191;-88
2023/07/02 06:32:06;;;;;;;10.63;9.32;;;18.20;84.40;;;;;;5032910;28;20229;-89
2023/07/02 06:34:31;;;;;;;13.30;9.90;;;18.10;83.60;;;;;;5031316;28;20272;-88
2023/07/02 06:36:57;;;;;;;14.07;10.25;;;18.30;82.70;;;;;;5032328;28;20701;-88
2023/07/02 06:39:22;;;;;;;11.85;10.65;;;18.30;82.20;;;;;;5019993;28;20184;-89
2023/07/02 06:41:48;;;;;;;13.02;10.07;;;18.40;82.60;;;;;;5016974;28;20622;-89
2023/07/02 06:44:14;;;;;;;14.18;11.60;;;18.60;81.30;;;;;;5017375;28;20173;-88
2023/07/02 06:46:39;;;;;;;12.43;11.18;;;18.50;79.40;;;;;;5018371;28;20325;-89
2023/07/02 06:49:05;;;;;;;14.82;12.75;;;18.60;78.60;;;;;;5016742;28;20353;-89
2023/07/02 06:51:31;;;;;;;15.00;11.80;;;18.70;76.50;;;;;;5032913;28;20191;-88
2023/07/02 06:53:56;;;;;;;13.63;12.20;;;18.80;77.30;;;;;;5036806;28;20677;-89
2023/07/02 06:56:22;;;;;;;14.65;12.38;;;18.90;78.00;;;;;;5038145;28;20211;-88
2023/07/02 06:58:48;;;;;;;20.30;13.80;;;19.00;79.30;;;;;;5036702;28;20235;-87
2023/07/02 07:01:13;;;;;;;18.15;14.15;;;18.90;75.20;;;;;;5022897;28;20230;-88
2023/07/02 07:03:39;;;;;;;17.35;14.60;;;18.80;74.30;;;;;;5015243;28;20210;-89
2023/07/02 07:06:04;;;;;;;15.57;13.95;;;18.80;76.00;;;;;;5015341;28;20218;-88
2023/07/02 07:08:30;;;;;;;18.38;14.88;;;18.80;75.40;;;;;;5015353;28;20204;-89
2023/07/02 07:10:55;;;;;;;18.63;15.57;;;18.90;72.90;;;;;;5014558;28;20192;-88
2023/07/02 07:13:22;;;;;;;16.67;15.15;;;19.00;72.00;;;;;;5015677;28;20176;-90
2023/07/02 07:15:48;;;;;;;19.58;15.43;;;19.10;72.90;;;;;;5019787;28;20623;-89
2023/07/02 07:18:13;;;;;;;20.20;16.35;;;19.10;69.60;;;;;;5044609;28;20212;-90
2023/07/02 07:20:41;;;;;;;17.95;15.98;;;19.20;70.00;;;;;;5056672;28;20214;-88
2023/07/02 07:23:07;;;;;;;18.98;15.85;;;19.30;70.30;;;;;;5055730;28;20184;-88
2023/07/02 07:25:32;;;;;;;17.88;16.13;;;19.30;69.60;;;;;;5055345;28;20206;-87
2023/07/02 07:27:59;;;;;;;23.65;16.92;;;19.40;68.30;;;;;;5054503;28;20202;-89
2023/07/02 07:30:25;;;;;;;23.67;16.77;;;19.50;67.10;;;;;;5054335;28;20216;-87
2023/07/02 07:32:52;;;;;;;19.13;15.35;;;19.50;68.20;;;;;;5034051;28;20181;-89
2023/07/02 07:35:18;;;;;;;17.25;15.30;;;19.40;64.80;;;;;;5034643;28;20237;-89
2023/07/02 07:37:44;;;;;;;18.65;15.65;;;19.30;67.20;;;;;;5032275;28;20197;-89
2023/07/02 07:40:11;;;;;;;17.90;15.55;;;19.30;66.10;;;;;;5016633;28;20636;-88
2023/07/02 07:42:36;;;;;;;19.38;17.50;;;19.30;66.80;;;;;;5016595;28;20185;-89
2023/07/02 07:45:03;;;;;;;23.48;17.38;;;19.40;65.60;;;;;;5015751;28;20186;-89
2023/07/02 07:47:29;;;;;;;20.48;17.58;;;19.50;64.20;;;;;;5017216;28;20207;-89
2023/07/02 07:49:55;;;;;;;19.60;16.95;;;19.40;66.50;;;;;;5015929;28;20646;-89
2023/07/02 07:52:21;;;;;;;21.85;17.77;;;19.50;67.20;;;;;;5016221;28;20804;-89
2023/07/02 07:54:46;;;;;;;22.55;18.75;;;19.50;67.70;;;;;;5015645;28;20592;-90
2023/07/02 07:57:12;;;;;;;20.95;18.38;;;19.80;65.60;;;;;;5014705;28;20252;-89
2023/07/02 07:59:38;;;;;;;21.88;18.10;;;19.90;66.60;;;;;;5015182;28;20177;-89
2023/07/02 08:02:04;;;;;;;25.90;21.13;;;19.70;65.90;;;;;;5015998;28;20231;-86
2023/07/02 08:04:29;;;;;;;25.08;20.52;;;19.80;64.60;;;;;;5014382;28;20502;-90
2023/07/02 08:06:56;;;;;;;22.77;20.33;;;19.80;64.70;;;;;;5015844;28;20243;-90
2023/07/02 08:09:23;;;;;;;27.33;20.48;;;20.00;64.80;;;;;;5019501;28;20188;-90
2023/07/02 08:11:49;;;;;;;23.77;20.77;;;20.00;64.70;;;;;;5016958;28;20659;-88
2023/07/02 08:14:16;;;;;;;25.40;21.40;;;20.00;65.30;;;;;;5043726;28;20266;-90
2023/07/02 08:16:41;;;;;;;26.90;22.05;;;20.10;64.70;;;;;;5043299;28;20268;-88
2023/07/02 08:19:07;;;;;;;24.85;20.70;;;20.30;64.40;;;;;;5022115;28;20204;-84
2023/07/02 08:21:33;;;;;;;27.40;22.08;;;20.20;64.70;;;;;;5023342;28;20837;-86
2023/07/02 08:23:58;;;;;;;27.50;22.40;;;20.20;66.10;;;;;;5026238;28;20176;-85
2023/07/02 08:26:24;;;;;;;25.88;22.35;;;20.20;62.10;;;;;;5046087;28;20235;-89
2023/07/02 08:28:49;;;;;;;25.27;20.88;;;20.10;63.60;;;;;;5033252;28;20790;-85
2023/07/02 08:31:16;;;;;;;24.90;22.23;;;20.50;63.60;;;;;;5035085;28;20280;-85
2023/07/02 08:33:42;;;;;;;26.60;21.90;;;20.70;61.70;;;;;;5034215;28;20181;-86
2023/07/02 08:36:08;;;;;;;24.13;21.58;;;20.70;61.00;;;;;;5041057;28;20270;-88
2023/07/02 08:38:34;;;;;;;28.52;21.67;;;20.50;62.50;;;;;;5033281;28;20241;-87
2023/07/02 08:41:00;;;;;;;24.50;22.00;;;20.50;63.30;;;;;;5023584;28;20192;-88
2023/07/02 08:43:27;;;;;;;27.80;23.02;;;20.60;61.20;;;;;;5020038;28;20179;-88
2023/07/02 08:45:53;;;;;;;30.98;21.73;;;20.70;60.80;;;;;;5018202;28;20193;-89
2023/07/02 08:48:22;;;;;;;25.98;22.33;;;20.50;61.10;;;;;;5018353;28;20225;-88
2023/07/02 08:50:49;;;;;;;26.58;22.00;;;20.70;62.20;;;;;;5020360;28;20196;-88
2023/07/02 08:53:15;;;;;;;28.60;22.63;;;20.90;64.50;;;;;;5018828;28;20180;-87
2023/07/02 08:55:41;;;;;;;28.27;22.60;;;21.10;60.30;;;;;;5017535;28;20229;-88
2023/07/02 08:58:06;;;;;;;24.52;21.67;;;21.30;62.60;;;;;;5015655;28;20590;-88
2023/07/02 09:00:36;;;;;;;25.13;22.45;;;21.30;58.10;;;;;;5017128;28;20265;-86
2023/07/02 09:03:17;;;;;;;27.90;22.17;;;21.10;61.10;;;;;;5016625;28;20196;-88
2023/07/02 09:05:51;;;;;;;28.70;21.88;;;21.60;59.10;;;;;;5022702;28;20250;-89
2023/07/02 09:08:28;;;;;;;24.50;21.73;;;21.80;60.10;;;;;;5029756;28;20310;-88
2023/07/02 09:10:54;;;;;;;31.40;23.48;;;21.80;58.80;;;;;;5039736;28;20185;-88
2023/07/02 09:13:20;;;;;;;25.17;22.38;;;22.10;58.90;;;;;;5050283;28;20203;-88
2023/07/02 09:15:45;;;;;;;24.80;22.33;;;22.20;58.20;;;;;;5027624;28;20201;-88
2023/07/02 09:18:19;;;;;;;25.58;23.10;;;22.20;57.10;;;;;;5031953;28;20602;-88
2023/07/02 09:20:44;;;;;;;30.10;24.55;;;22.10;57.40;;;;;;5034881;28;20209;-88
2023/07/02 09:23:10;;;;;;;28.70;23.67;;;22.10;56.30;;;;;;5034859;28;20208;-87
2023/07/02 09:25:40;;;;;;;26.05;23.30;;;21.70;59.00;;;;;;5037226;28;20241;-89
2023/07/02 09:28:17;;;;;;;26.90;23.60;;;21.70;58.30;;;;;;5037023;28;20236;-89
2023/07/02 09:30:57;;;;;;;26.58;22.85;;;22.10;58.10;;;;;;5038671;28;20211;-90
2023/07/02 09:33:27;;;;;;;26.40;23.55;;;22.30;55.10;;;;;;5039039;28;20284;-89
2023/07/02 09:35:54;;;;;;;26.27;23.67;;;22.30;55.90;;;;;;5038618;28;20246;-88
2023/07/02 09:38:21;;;;;;;27.02;23.70;;;22.10;55.60;;;;;;5030628;28;20193;-90
2023/07/02 09:40:49;;;;;;;28.02;23.65;;;22.30;55.90;;;;;;5018797;28;20676;-88
2023/07/02 09:43:16;;;;;;;27.08;24.25;;;22.30;55.50;;;;;;5021738;28;20244;-88
2023/07/02 09:45:47;;;;;;;26.77;23.95;;;22.20;55.60;;;;;;5038796;28;20204;-89
2023/07/02 09:48:16;;;;;;;27.95;23.48;;;22.00;55.90;;;;;;5037614;28;20219;-89
2023/07/02 09:50:43;;;;;;;29.88;23.77;;;21.80;56.00;;;;;;5038920;28;20194;-88
2023/07/02 09:53:10;;;;;;;27.85;23.00;;;21.60;57.10;;;;;;5037522;28;20721;-87
2023/07/02 09:55:41;;;;;;;27.35;23.42;;;21.50;56.40;;;;;;5038101;28;20196;-88
2023/07/02 09:58:07;;;;;;;25.40;22.80;;;21.30;57.20;;;;;;5037788;28;20204;-89
2023/07/02 10:00:33;;;;;;;25.75;23.00;;;21.30;56.80;;;;;;5036042;28;20812;-88
2023/07/02 10:03:00;;;;;;;25.40;22.60;;;21.60;57.10;;;;;;5036110;28;20226;-89
2023/07/02 10:05:34;;;;;;;25.20;21.95;;;21.60;56.30;;;;;;5035428;28;20622;-87
2023/07/02 10:08:26;;;;;;;24.15;21.75;;;21.70;57.70;;;;;;5047344;28;20199;-88
2023/07/02 10:10:52;;;;;;;27.13;22.80;;;22.00;55.90;;;;;;5036540;28;20188;-89
2023/07/02 10:13:28;;;;;;;25.77;23.17;;;22.40;55.90;;;;;;5033291;28;20177;-88
2023/07/02 10:16:04;;;;;;;24.67;22.23;;;22.60;54.00;;;;;;5033853;28;20283;-87
2023/07/02 10:18:30;;;;;;;24.98;22.13;;;23.00;53.90;;;;;;5030545;28;20216;-88
2023/07/02 10:20:56;;;;;;;26.35;22.15;;;23.20;52.50;;;;;;5032348;28;20188;-88
2023/07/02 10:23:35;;;;;;;25.23;22.58;;;23.50;52.10;;;;;;5031713;28;20188;-87
2023/07/02 10:26:17;;;;;;;28.27;23.60;;;23.90;49.60;;;;;;5016969;28;20188;-87
2023/07/02 10:28:55;;;;;;;26.33;23.48;;;24.00;47.90;;;;;;5037085;28;20208;-87
2023/07/02 10:31:21;;;;;;;27.10;24.42;;;24.30;49.10;;;;;;5046515;28;20413;-88
2023/07/02 10:33:47;;;;;;;27.52;24.65;;;24.60;48.20;;;;;;5026795;28;20217;-88
2023/07/02 10:36:20;;;;;;;27.38;24.88;;;24.70;46.70;;;;;;5018161;28;20215;-88
2023/07/02 10:38:46;;;;;;;27.83;25.15;;;24.90;46.50;;;;;;5033333;28;20193;-87
2023/07/02 10:41:22;;;;;;;27.63;24.98;;;25.00;47.40;;;;;;5040223;28;20207;-89
2023/07/02 10:43:48;;;;;;;28.48;25.42;;;25.10;45.90;;;;;;5017316;28;20191;-87
2023/07/02 10:46:19;;;;;;;28.20;25.33;;;25.00;41.90;;;;;;5017517;28;20208;-91
2023/07/02 10:48:55;;;;;;;28.10;25.23;;;25.10;44.70;;;;;;5027500;28;20198;-89
2023/07/02 10:51:21;;;;;;;27.23;24.65;;;25.20;42.40;;;;;;5036908;28;20172;-89
2023/07/02 10:54:00;;;;;;;27.38;24.83;;;24.90;42.00;;;;;;5054472;28;20188;-88
2023/07/02 10:56:28;;;;;;;27.02;24.50;;;25.10;42.40;;;;;;5051222;28;20204;-88
2023/07/02 10:58:55;;;;;;;25.80;23.33;;;24.90;41.60;;;;;;5044519;28;20188;-89
2023/07/02 11:01:31;;;;;;;27.52;24.90;;;24.80;43.50;;;;;;5042090;28;20188;-89
2023/07/02 11:04:02;;;;;;;27.10;24.70;;;25.30;41.50;;;;;;5054486;28;20188;-87
2023/07/02 11:06:28;;;;;;;28.00;25.40;;;25.60;42.40;;;;;;5040033;28;20205;-86
2023/07/02 11:08:55;;;;;;;29.15;26.35;;;26.10;42.50;;;;;;5034204;28;20181;-88
2023/07/02 11:11:22;;;;;;;27.13;24.52;;;26.10;37.90;;;;;;5032887;28;20208;-89
2023/07/02 11:13:54;;;;;;;29.35;26.55;;;25.50;39.00;;;;;;5034306;28;20178;-89
2023/07/02 11:16:28;;;;;;;30.55;27.65;;;25.60;41.60;;;;;;5034509;28;20197;-88
2023/07/02 11:19:07;;;;;;;28.73;26.25;;;25.80;41.60;;;;;;5035340;28;20173;-88
2023/07/02 11:21:33;;;;;;;29.75;26.95;;;26.30;41.40;;;;;;5036552;28;20180;-88
2023/07/02 11:24:06;;;;;;;30.98;28.10;;;26.20;40.50;;;;;;5035290;28;20207;-87
2023/07/02 11:26:39;;;;;;;30.75;28.20;;;25.80;39.90;;;;;;5045945;28;20188;-85
2023/07/02 11:29:10;;;;;;;30.52;27.88;;;26.40;40.60;;;;;;5036738;28;20552;-89
2023/07/02 11:31:36;;;;;;;30.77;28.02;;;26.70;38.20;;;;;;5015803;28;20370;-88
2023/07/02 11:34:01;;;;;;;30.98;27.88;;;26.90;38.40;;;;;;5016873;28;20193;-89
2023/07/02 11:36:27;;;;;;;32.03;29.33;;;27.00;38.10;;;;;;5016351;28;20622;-89
2023/07/02 11:38:55;;;;;;;30.65;28.15;;;26.70;37.20;;;;;;5030585;28;20251;-90
2023/07/02 11:41:21;;;;;;;31.23;28.65;;;27.00;37.40;;;;;;5036908;28;20199;-89
2023/07/02 11:43:47;;;;;;;30.58;27.90;;;27.10;37.20;;;;;;5035834;28;20184;-90
2023/07/02 11:46:13;;;;;;;31.95;29.23;;;26.90;36.30;;;;;;5018486;28;20190;-88
2023/07/02 11:48:39;;;;;;;31.98;29.27;;;26.40;36.70;;;;;;5032646;28;20247;-89
2023/07/02 11:51:05;;;;;;;30.55;27.95;;;26.80;37.60;;;;;;5040719;28;20181;-89
2023/07/02 11:53:30;;;;;;;32.33;29.52;;;26.90;35.20;;;;;;5041570;28;20852;-89
2023/07/02 11:55:56;;;;;;;32.05;29.52;;;27.30;36.70;;;;;;5043319;28;20864;-90
2023/07/02 11:58:21;;;;;;;32.00;29.25;;;27.30;34.10;;;;;;5046505;28;20220;-82
2023/07/02 12:00:47;;;;;;;30.95;28.00;;;27.50;34.60;;;;;;5055323;28;20203;-86
2023/07/02 12:03:13;;;;;;;32.08;29.10;;;27.40;33.40;;;;;;5057801;28;20180;-84
2023/07/02 12:05:38;;;;;;;31.77;29.13;;;26.90;33.60;;;;;;5030459;28;20229;-91
2023/07/02 12:08:04;;;;;;;30.15;27.73;;;26.10;36.70;;;;;;5031803;28;20227;-90
2023/07/02 12:10:29;;;;;;;30.60;28.08;;;26.30;35.40;;;;;;5044034;28;20183;-91
2023/07/02 12:12:55;;;;;;;33.55;30.77;;;26.80;34.10;;;;;;5038046;28;20185;-90
2023/07/02 12:15:21;;;;;;;28.92;26.58;;;27.20;33.80;;;;;;5026978;28;20212;-89
2023/07/02 12:17:46;;;;;;;28.73;26.25;;;27.40;33.30;;;;;;5022965;28;20686;-90
2023/07/02 12:20:12;;;;;;;30.10;27.52;;;27.40;32.80;;;;;;5023319;28;20177;-92
2023/07/02 12:22:38;;;;;;;28.05;25.83;;;27.50;33.10;;;;;;5026546;28;20250;-92
2023/07/02 12:25:04;;;;;;;27.20;25.15;;;27.10;32.60;;;;;;5027184;28;20177;-88
2023/07/02 12:27:30;;;;;;;28.85;26.35;;;27.30;32.00;;;;;;5024687;28;20206;-93
2023/07/02 12:29:56;;;;;;;29.85;27.48;;;27.60;32.40;;;;;;5043273;28;20189;-90
2023/07/02 12:32:21;;;;;;;29.30;26.92;;;27.60;33.10;;;;;;5042140;28;20200;-90
2023/07/02 12:34:47;;;;;;;31.20;28.70;;;27.80;31.20;;;;;;5022784;28;20200;-90
2023/07/02 12:37:17;;;;;;;30.08;27.77;;;28.10;33.10;;;;;;5022874;28;20255;-93
2023/07/02 12:39:42;;;;;;;30.38;28.05;;;28.50;31.10;;;;;;5042767;28;20185;-92